Piney, Canada
Current Conditions -  °F | °C
As of 8:14 PM on Sunday 25 Jan 2015 (Local Time) from KROX Reporting Station
Overcast Overcast  
Wind Chill:   Ceiling: 1400
Heat Index: 19°   Visibility: 10mi
Dew Point: 14°   Wind: 10mph
Humidity: 80%   Direction: 190°S
Pressure: 29.83"   Gusts: NA
Location:  49.07°N, 95.97°W
Report Text: KROX 260214Z AUTO 19009KT 10SM OVC014 M07/M10 A2983 RMK AO2
Loading
Personal Weather Stations






























Interactive Weather Map New forecast layout! Learn more

10-Day Weather Forecast

Advertisements
Track Severe Weather on mobile